Gorman, Texas
Current Conditions -  °F | °C
As of 8:35 PM on Friday 28 Nov 2014 (Local Time) from KMKN Reporting Station
Clear Clear  
Wind Chill: 59°   Ceiling: Unl
Heat Index: 59°   Visibility: 10mi
Dew Point: 46°   Wind: 13mph
Humidity: 61%   Direction: 190°S
Pressure: 30.04"   Gusts: 18mph
Location:  32.21°N, 98.67°W
Report Text: KMKN 290235Z AUTO 19011G16KT 10SM CLR 15/08 A3004 RMK AO2 T01500076
Loading
Personal Weather Stations






























Interactive Weather Map New forecast layout! Learn more

10-Day Weather Forecast

Advertisements
Track Severe Weather on mobile